Time;durP1;ratioP1;P1;durP2;ratioP2;P2;SDS_P1;SDS_P2;PMS_P1;PMS_P2;Temp;Humidity;BMP_temperature;BMP_pressure;BME280_temperature;BME280_humidity;BME280_pressure;Samples;Min_cycle;Max_cycle;Signal;HPM_P1;HPM_P2
2023/06/11 00:01:26;;;;;;;10.83;3.23;;;17.30;99.90;;;;;;5049404;28;20485;-54
2023/06/11 00:03:53;;;;;;;7.13;3.90;;;17.30;99.90;;;;;;5050038;28;20507;-53
2023/06/11 00:06:22;;;;;;;6.60;3.17;;;17.20;99.90;;;;;;5054055;28;20562;-54
2023/06/11 00:08:51;;;;;;;4.60;2.83;;;17.20;99.90;;;;;;5052079;28;20484;-53
2023/06/11 00:11:17;;;;;;;9.37;3.20;;;17.20;99.90;;;;;;5054038;28;20839;-53
2023/06/11 00:13:44;;;;;;;11.43;3.17;;;17.10;99.90;;;;;;5053251;28;20497;-54
2023/06/11 00:16:13;;;;;;;6.23;3.37;;;17.00;99.90;;;;;;5055424;28;20492;-54
2023/06/11 00:18:42;;;;;;;3.03;2.83;;;16.90;99.90;;;;;;5053079;28;20549;-54
2023/06/11 00:21:08;;;;;;;6.60;3.17;;;16.90;99.90;;;;;;5054081;28;20994;-54
2023/06/11 00:23:36;;;;;;;8.53;3.20;;;16.80;99.90;;;;;;5054449;28;20476;-53
2023/06/11 00:26:04;;;;;;;8.73;3.03;;;16.80;99.90;;;;;;5054572;28;20553;-54
2023/06/11 00:28:31;;;;;;;3.03;2.73;;;16.80;99.90;;;;;;5053989;28;20572;-54
2023/06/11 00:30:57;;;;;;;6.27;3.30;;;16.80;99.90;;;;;;5054843;28;20533;-54
2023/06/11 00:33:24;;;;;;;3.10;2.60;;;16.80;99.90;;;;;;5053287;28;20461;-53
2023/06/11 00:36:21;;;;;;;8.87;3.33;;;16.70;99.90;;;;;;5055417;28;20608;-52
2023/06/11 00:38:48;;;;;;;9.20;3.43;;;16.70;99.90;;;;;;5058245;28;20465;-53
2023/06/11 00:41:14;;;;;;;6.70;3.57;;;16.70;99.90;;;;;;5052551;28;20532;-53
2023/06/11 00:43:41;;;;;;;4.47;3.60;;;16.60;99.90;;;;;;5051267;28;20549;-54
2023/06/11 00:46:10;;;;;;;8.57;3.40;;;16.50;99.90;;;;;;5052691;28;21002;-54
2023/06/11 00:48:37;;;;;;;7.67;2.80;;;16.40;99.90;;;;;;5051205;28;20462;-54
2023/06/11 00:51:05;;;;;;;6.03;2.83;;;16.40;99.90;;;;;;5051882;28;21069;-53
2023/06/11 00:53:32;;;;;;;7.20;3.33;;;16.30;99.90;;;;;;5050640;28;21053;-55
2023/06/11 00:55:59;;;;;;;9.70;3.40;;;16.20;99.90;;;;;;5052800;28;21236;-53
2023/06/11 00:58:27;;;;;;;4.93;3.53;;;16.20;99.90;;;;;;5053764;28;20466;-54
2023/06/11 01:00:58;;;;;;;8.50;3.50;;;16.20;99.90;;;;;;5051772;28;20469;-53
2023/06/11 01:03:26;;;;;;;4.13;3.13;;;16.10;99.90;;;;;;5046528;28;20458;-53
2023/06/11 01:06:01;;;;;;;14.93;3.47;;;16.10;99.90;;;;;;5052637;28;20939;-55
2023/06/11 01:08:30;;;;;;;3.03;2.80;;;16.00;99.90;;;;;;5052390;22;20556;-54
2023/06/11 01:11:01;;;;;;;4.87;2.73;;;16.00;99.90;;;;;;5031926;28;20550;-55
2023/06/11 01:13:27;;;;;;;4.00;2.70;;;15.90;99.90;;;;;;5027548;28;20856;-53
2023/06/11 01:16:01;;;;;;;4.37;3.17;;;15.90;99.90;;;;;;5029599;28;20569;-55
2023/06/11 01:18:32;;;;;;;7.47;3.00;;;15.80;99.90;;;;;;5013841;28;21020;-53
2023/06/11 01:21:05;;;;;;;3.70;3.20;;;15.70;99.90;;;;;;5011059;28;20554;-53
2023/06/11 01:23:41;;;;;;;10.43;3.70;;;15.70;99.90;;;;;;5013722;28;20548;-53
2023/06/11 01:26:35;;;;;;;16.00;3.70;;;15.60;99.90;;;;;;5011427;28;20470;-54
2023/06/11 01:29:05;;;;;;;3.33;3.00;;;15.60;99.90;;;;;;5011362;28;20460;-54
2023/06/11 01:31:37;;;;;;;14.30;3.43;;;15.50;99.90;;;;;;5010946;28;20452;-54
2023/06/11 01:34:04;;;;;;;4.63;3.10;;;15.50;99.90;;;;;;5010140;28;20464;-54
2023/06/11 01:36:34;;;;;;;14.73;3.40;;;15.50;99.90;;;;;;5008968;28;21203;-54
2023/06/11 01:39:01;;;;;;;6.30;3.13;;;15.40;99.90;;;;;;5012638;28;20543;-54
2023/06/11 01:41:28;;;;;;;4.60;3.10;;;15.40;99.90;;;;;;5011597;28;20488;-54
2023/06/11 01:43:55;;;;;;;7.43;3.60;;;15.30;99.90;;;;;;5007951;28;20488;-53
2023/06/11 01:46:23;;;;;;;8.03;3.20;;;15.20;99.90;;;;;;5011272;28;20488;-53
2023/06/11 01:48:49;;;;;;;6.43;3.03;;;15.10;99.90;;;;;;5012641;28;20941;-54
2023/06/11 01:51:16;;;;;;;6.10;3.07;;;15.10;99.90;;;;;;5008958;28;20471;-54
2023/06/11 01:53:43;;;;;;;7.17;3.30;;;15.00;99.90;;;;;;5013323;28;20452;-53
2023/06/11 01:56:10;;;;;;;9.40;3.53;;;15.00;99.90;;;;;;5011293;28;21016;-54
2023/06/11 01:58:37;;;;;;;7.30;3.83;;;14.90;99.90;;;;;;5012314;28;20503;-54
2023/06/11 02:01:04;;;;;;;9.53;3.30;;;14.90;99.90;;;;;;5010594;28;20460;-53
2023/06/11 02:03:31;;;;;;;3.93;3.50;;;14.80;99.90;;;;;;5010325;28;21008;-53
2023/06/11 02:05:58;;;;;;;5.80;3.70;;;14.80;99.90;;;;;;5005333;28;20495;-54
2023/06/11 02:08:26;;;;;;;6.13;3.50;;;14.70;99.90;;;;;;5012980;28;20506;-53
2023/06/11 02:10:52;;;;;;;8.73;3.93;;;14.80;99.90;;;;;;5012218;28;20988;-54
2023/06/11 02:13:19;;;;;;;12.70;3.40;;;14.70;99.90;;;;;;5010640;28;20518;-54
2023/06/11 02:15:45;;;;;;;7.27;3.47;;;14.70;99.90;;;;;;5010223;28;20499;-55
2023/06/11 02:18:12;;;;;;;3.97;3.57;;;14.60;99.90;;;;;;5016867;28;20839;-54
2023/06/11 02:20:40;;;;;;;6.50;3.50;;;14.60;99.90;;;;;;5015296;28;20495;-54
2023/06/11 02:23:06;;;;;;;3.53;3.00;;;14.60;99.90;;;;;;5024053;28;20460;-54
2023/06/11 02:25:33;;;;;;;3.00;2.80;;;14.50;99.90;;;;;;5012702;28;20483;-54
2023/06/11 02:27:59;;;;;;;12.10;3.33;;;14.40;99.90;;;;;;5012209;28;20495;-54
2023/06/11 02:30:26;;;;;;;5.97;3.57;;;14.40;99.90;;;;;;5011654;28;20546;-54
2023/06/11 02:32:52;;;;;;;6.03;3.70;;;14.40;98.40;;;;;;5013859;28;20962;-53
2023/06/11 02:35:19;;;;;;;14.00;3.70;;;14.40;98.80;;;;;;5003139;28;20474;-53
2023/06/11 02:37:47;;;;;;;7.70;3.50;;;14.30;96.70;;;;;;5017843;28;20512;-54
2023/06/11 02:40:13;;;;;;;12.17;4.00;;;14.30;85.50;;;;;;5011739;28;20495;-54
2023/06/11 02:42:40;;;;;;;6.47;2.97;;;14.20;88.80;;;;;;5010024;28;20480;-54
2023/06/11 02:45:07;;;;;;;8.00;3.50;;;14.20;86.30;;;;;;5004778;28;20472;-54
2023/06/11 02:47:34;;;;;;;6.70;3.47;;;14.20;77.30;;;;;;5009381;28;20499;-54
2023/06/11 02:50:00;;;;;;;9.73;4.33;;;14.10;77.90;;;;;;5010536;28;20447;-55
2023/06/11 02:52:27;;;;;;;5.60;4.50;;;14.00;71.90;;;;;;5010473;28;20880;-54
2023/06/11 02:54:55;;;;;;;3.70;3.40;;;14.00;73.30;;;;;;5012099;28;20467;-53
2023/06/11 02:57:21;;;;;;;12.03;3.43;;;14.10;72.80;;;;;;5010448;28;20932;-54
2023/06/11 02:59:48;;;;;;;10.13;3.03;;;14.00;73.10;;;;;;5008821;28;20518;-54
2023/06/11 03:02:15;;;;;;;5.20;3.40;;;14.00;70.20;;;;;;5009851;28;20495;-54
2023/06/11 03:04:41;;;;;;;4.17;3.77;;;14.00;70.80;;;;;;5010456;28;20500;-53
2023/06/11 03:07:08;;;;;;;3.60;3.30;;;14.00;71.00;;;;;;5010759;28;20527;-53
2023/06/11 03:09:34;;;;;;;4.80;3.30;;;14.10;68.90;;;;;;5012355;28;21001;-54
2023/06/11 03:12:02;;;;;;;5.97;3.03;;;14.00;69.50;;;;;;5010415;28;20468;-54
2023/06/11 03:14:29;;;;;;;7.13;3.20;;;14.00;69.80;;;;;;5010359;28;20475;-55
2023/06/11 03:16:55;;;;;;;5.50;3.27;;;14.00;65.40;;;;;;5011050;28;20507;-53
2023/06/11 03:19:22;;;;;;;6.20;3.30;;;14.10;70.20;;;;;;5005261;28;20496;-53
2023/06/11 03:21:48;;;;;;;6.63;3.70;;;14.10;70.10;;;;;;5005596;28;20560;-55
2023/06/11 03:24:15;;;;;;;6.30;3.70;;;14.10;69.60;;;;;;5003864;28;20436;-53
2023/06/11 03:26:41;;;;;;;10.57;3.80;;;14.10;69.40;;;;;;5007742;28;20535;-54
2023/06/11 03:29:09;;;;;;;7.77;3.70;;;14.10;70.90;;;;;;5009804;28;20495;-54
2023/06/11 03:31:37;;;;;;;8.50;3.50;;;14.10;69.40;;;;;;5009630;28;20496;-53
2023/06/11 03:34:03;;;;;;;11.00;3.50;;;14.10;64.50;;;;;;5009610;28;20462;-54
2023/06/11 03:36:30;;;;;;;3.77;3.27;;;14.10;65.30;;;;;;5008691;28;20516;-54
2023/06/11 03:38:56;;;;;;;6.30;3.20;;;14.00;66.50;;;;;;5013611;28;20985;-53
2023/06/11 03:41:23;;;;;;;3.90;3.07;;;14.10;65.20;;;;;;5012916;28;20487;-53
2023/06/11 03:43:49;;;;;;;3.40;3.10;;;14.10;68.00;;;;;;5014200;28;20487;-54
2023/06/11 03:46:19;;;;;;;5.90;3.07;;;14.10;68.50;;;;;;5014364;28;20487;-53
2023/06/11 03:48:46;;;;;;;4.60;3.53;;;14.20;70.80;;;;;;5015645;28;20444;-55
2023/06/11 03:51:12;;;;;;;6.10;2.80;;;14.20;70.60;;;;;;5013973;28;20490;-53
2023/06/11 03:53:39;;;;;;;9.23;3.20;;;14.20;69.50;;;;;;5014668;28;20561;-54
2023/06/11 03:56:05;;;;;;;6.50;3.13;;;14.20;72.20;;;;;;5019307;28;20551;-54
2023/06/11 03:58:32;;;;;;;3.50;3.20;;;14.20;68.40;;;;;;5015637;28;20522;-53
2023/06/11 04:00:59;;;;;;;6.37;3.40;;;14.20;70.70;;;;;;5015593;28;20478;-53
2023/06/11 04:03:26;;;;;;;5.97;2.97;;;14.30;74.00;;;;;;5015617;28;20479;-53
2023/06/11 04:05:53;;;;;;;3.50;3.00;;;14.30;79.80;;;;;;5015354;28;20479;-54
2023/06/11 04:08:19;;;;;;;7.70;3.07;;;14.30;76.90;;;;;;5015374;28;20510;-52
2023/06/11 04:10:46;;;;;;;3.80;2.90;;;14.30;78.10;;;;;;5012943;28;21012;-54
2023/06/11 04:13:13;;;;;;;8.20;2.80;;;14.40;78.60;;;;;;5009064;28;20782;-54
2023/06/11 04:15:39;;;;;;;6.60;3.30;;;14.40;78.40;;;;;;5015196;28;20942;-53
2023/06/11 04:18:06;;;;;;;2.73;2.53;;;14.50;83.60;;;;;;5015679;28;20516;-55
2023/06/11 04:20:33;;;;;;;13.67;3.03;;;14.50;82.10;;;;;;5016051;28;20483;-53
2023/06/11 04:23:00;;;;;;;10.70;3.73;;;14.50;82.00;;;;;;5015488;28;20961;-53
2023/06/11 04:25:26;;;;;;;5.70;2.73;;;14.60;83.90;;;;;;5014219;28;20538;-54
2023/06/11 04:27:53;;;;;;;5.57;2.47;;;14.60;83.50;;;;;;5015122;28;21028;-54
2023/06/11 04:30:20;;;;;;;5.20;2.70;;;14.70;88.90;;;;;;5029180;28;20972;-54
2023/06/11 04:32:47;;;;;;;4.93;2.70;;;14.70;89.30;;;;;;5015164;28;20514;-53
2023/06/11 04:35:13;;;;;;;10.23;2.83;;;14.70;91.50;;;;;;5027545;28;20973;-54
2023/06/11 04:37:41;;;;;;;3.30;3.00;;;14.80;89.70;;;;;;5034830;28;20555;-53
2023/06/11 04:40:10;;;;;;;9.97;3.60;;;14.90;94.70;;;;;;5014026;28;20496;-54
2023/06/11 04:42:38;;;;;;;5.70;2.70;;;14.90;94.50;;;;;;5015118;28;20822;-53
2023/06/11 04:45:08;;;;;;;8.40;2.80;;;15.00;97.50;;;;;;5012290;28;20467;-53
2023/06/11 04:47:34;;;;;;;15.20;3.20;;;15.10;99.90;;;;;;5014142;28;20486;-54
2023/06/11 04:50:03;;;;;;;3.73;2.53;;;15.10;99.90;;;;;;5011897;28;20972;-53
2023/06/11 04:52:32;;;;;;;4.93;2.63;;;15.20;99.90;;;;;;5013901;28;20456;-51
2023/06/11 04:55:01;;;;;;;5.83;3.00;;;15.20;99.90;;;;;;5007712;28;20459;-52
2023/06/11 04:57:28;;;;;;;7.00;2.37;;;15.30;99.90;;;;;;5009132;28;20483;-51
2023/06/11 04:59:54;;;;;;;6.83;2.70;;;15.40;99.90;;;;;;5013743;28;21081;-53
2023/06/11 05:02:22;;;;;;;4.23;2.47;;;15.40;99.90;;;;;;5011545;28;20494;-52
2023/06/11 05:04:53;;;;;;;9.60;3.13;;;15.50;99.90;;;;;;5011295;28;21297;-52
2023/06/11 05:07:20;;;;;;;4.30;2.40;;;15.50;99.90;;;;;;5006403;28;20474;-52
2023/06/11 05:09:47;;;;;;;4.20;2.97;;;15.50;99.90;;;;;;5007039;28;20474;-52
2023/06/11 05:12:15;;;;;;;4.00;3.00;;;15.60;99.90;;;;;;5010788;28;20510;-51
2023/06/11 05:14:43;;;;;;;3.80;2.77;;;15.60;99.90;;;;;;5012200;28;20470;-52
2023/06/11 05:17:09;;;;;;;2.43;2.33;;;15.70;99.90;;;;;;5013067;28;20917;-52
2023/06/11 05:19:36;;;;;;;6.33;2.57;;;15.70;99.90;;;;;;5013610;28;20492;-52
2023/06/11 05:22:02;;;;;;;13.53;2.63;;;15.80;99.90;;;;;;5011538;28;20498;-51
2023/06/11 05:24:30;;;;;;;3.10;2.60;;;15.90;99.90;;;;;;5011749;28;20488;-53
2023/06/11 05:26:57;;;;;;;9.43;3.20;;;16.00;99.90;;;;;;5011803;28;20480;-52
2023/06/11 05:29:25;;;;;;;8.00;3.10;;;16.10;99.90;;;;;;5012528;28;20969;-52
2023/06/11 05:31:52;;;;;;;9.97;2.70;;;16.20;99.90;;;;;;5011924;28;20537;-53
2023/06/11 05:34:19;;;;;;;13.43;2.60;;;16.30;99.90;;;;;;5008862;28;20460;-54
2023/06/11 05:36:48;;;;;;;12.53;2.83;;;16.30;99.90;;;;;;5011507;28;20519;-54
2023/06/11 05:39:14;;;;;;;7.50;2.50;;;16.30;99.90;;;;;;5003267;28;20484;-54
2023/06/11 05:41:41;;;;;;;7.50;2.90;;;16.40;99.90;;;;;;5012255;28;20890;-53
2023/06/11 05:44:08;;;;;;;15.47;2.80;;;16.60;99.90;;;;;;5012548;28;20828;-54
2023/06/11 05:46:35;;;;;;;2.97;2.77;;;16.60;99.90;;;;;;5011654;28;20521;-55
2023/06/11 05:49:02;;;;;;;7.07;2.63;;;16.70;99.90;;;;;;5012137;28;20484;-55
2023/06/11 05:51:29;;;;;;;4.60;2.93;;;16.70;99.90;;;;;;5011313;28;20499;-54
2023/06/11 05:53:55;;;;;;;7.03;2.57;;;16.70;99.90;;;;;;5014332;28;20988;-54
2023/06/11 05:56:22;;;;;;;2.50;2.30;;;16.80;99.90;;;;;;5015474;28;20495;-54
2023/06/11 05:58:48;;;;;;;14.03;2.97;;;16.90;99.90;;;;;;5017575;28;20523;-54
2023/06/11 06:01:15;;;;;;;5.13;2.60;;;17.00;99.90;;;;;;5016615;28;20492;-54
2023/06/11 06:03:43;;;;;;;3.70;2.43;;;17.10;99.90;;;;;;5015698;28;20451;-55
2023/06/11 06:06:09;;;;;;;5.83;3.10;;;17.20;99.90;;;;;;5015471;28;20499;-54
2023/06/11 06:08:36;;;;;;;3.70;2.13;;;17.30;99.90;;;;;;5015840;28;20499;-54
2023/06/11 06:11:02;;;;;;;3.63;2.60;;;17.30;99.90;;;;;;5013463;28;20448;-54
2023/06/11 06:13:29;;;;;;;4.10;2.80;;;17.30;99.90;;;;;;5012869;28;20500;-53
2023/06/11 06:15:56;;;;;;;6.77;2.47;;;17.30;99.90;;;;;;5013025;28;20455;-53
2023/06/11 06:18:23;;;;;;;5.03;2.83;;;17.40;99.90;;;;;;5016244;28;21010;-53
2023/06/11 06:20:50;;;;;;;21.30;3.70;;;17.50;99.90;;;;;;5017537;28;20969;-55
2023/06/11 06:23:17;;;;;;;7.03;2.60;;;17.60;99.90;;;;;;5020880;28;20856;-55
2023/06/11 06:25:44;;;;;;;8.13;2.47;;;17.60;99.90;;;;;;5032514;28;20890;-52
2023/06/11 06:28:10;;;;;;;7.10;2.80;;;17.70;99.90;;;;;;5032543;28;20872;-54
2023/06/11 06:30:38;;;;;;;9.07;2.73;;;17.80;99.90;;;;;;5032635;28;20891;-56
2023/06/11 06:33:05;;;;;;;7.50;3.90;;;17.90;99.90;;;;;;5015144;28;20469;-53
2023/06/11 06:35:32;;;;;;;5.40;2.77;;;18.00;99.90;;;;;;5014487;28;20488;-54
2023/06/11 06:38:00;;;;;;;4.03;2.93;;;18.00;99.90;;;;;;5012520;28;20506;-53
2023/06/11 06:40:27;;;;;;;6.77;2.93;;;18.10;99.90;;;;;;4993044;28;20477;-53
2023/06/11 06:42:54;;;;;;;4.00;2.90;;;18.10;99.90;;;;;;5003866;28;20550;-54
2023/06/11 06:45:20;;;;;;;13.90;2.97;;;18.10;99.90;;;;;;5011458;28;20463;-54
2023/06/11 06:47:47;;;;;;;3.50;3.00;;;18.10;99.90;;;;;;5010616;28;20933;-54
2023/06/11 06:50:14;;;;;;;3.90;3.20;;;18.10;99.90;;;;;;5007899;28;20915;-54
2023/06/11 06:52:40;;;;;;;7.73;3.30;;;18.20;99.90;;;;;;5011521;28;20447;-55
2023/06/11 06:55:09;;;;;;;6.80;3.37;;;18.30;99.90;;;;;;5012125;28;20528;-55
2023/06/11 06:57:36;;;;;;;5.17;3.30;;;18.30;99.90;;;;;;5010564;28;20486;-53
2023/06/11 07:00:04;;;;;;;10.93;2.97;;;18.50;99.90;;;;;;5010828;28;20495;-51
2023/06/11 07:02:30;;;;;;;8.87;3.17;;;18.50;99.90;;;;;;5008162;28;20459;-51
2023/06/11 07:04:57;;;;;;;4.83;3.13;;;18.60;99.90;;;;;;5009613;28;20514;-51
2023/06/11 07:07:24;;;;;;;3.70;2.63;;;18.70;99.90;;;;;;5010628;28;20542;-51
2023/06/11 07:09:51;;;;;;;22.83;3.10;;;18.80;99.90;;;;;;5012196;28;20440;-51
2023/06/11 07:12:19;;;;;;;8.10;3.30;;;18.80;99.90;;;;;;5008443;28;20495;-51
2023/06/11 07:14:45;;;;;;;6.17;3.17;;;18.90;99.90;;;;;;5009382;28;20455;-51
2023/06/11 07:17:12;;;;;;;5.90;3.50;;;19.00;99.90;;;;;;5008169;28;20479;-51
2023/06/11 07:19:38;;;;;;;5.13;3.07;;;19.10;99.90;;;;;;5011408;28;20515;-52
2023/06/11 07:22:05;;;;;;;20.47;3.43;;;19.20;99.90;;;;;;5010397;28;20504;-50
2023/06/11 07:24:32;;;;;;;10.77;3.20;;;19.20;99.90;;;;;;5004813;28;20997;-51
2023/06/11 07:26:58;;;;;;;5.90;3.20;;;19.30;99.90;;;;;;5010386;28;20515;-52
2023/06/11 07:29:27;;;;;;;6.70;2.77;;;19.40;99.90;;;;;;5011186;28;20460;-51
2023/06/11 07:31:53;;;;;;;4.17;3.07;;;19.50;99.90;;;;;;5010350;28;20942;-51
2023/06/11 07:34:20;;;;;;;10.33;3.97;;;19.60;99.90;;;;;;5012925;28;20480;-51
2023/06/11 07:36:46;;;;;;;6.73;2.90;;;19.60;99.90;;;;;;5009987;28;20464;-52
2023/06/11 07:39:13;;;;;;;15.97;4.63;;;19.70;99.90;;;;;;5008778;28;20515;-51
2023/06/11 07:41:40;;;;;;;4.43;3.77;;;19.80;99.90;;;;;;5010151;28;20514;-52
2023/06/11 07:44:06;;;;;;;6.47;3.10;;;19.90;99.90;;;;;;5010036;28;20464;-51
2023/06/11 07:46:34;;;;;;;7.27;3.93;;;19.90;99.90;;;;;;5009509;28;20832;-51
2023/06/11 07:49:00;;;;;;;9.13;3.33;;;20.00;99.90;;;;;;5011626;28;20459;-51
2023/06/11 07:51:27;;;;;;;6.40;3.47;;;20.10;99.90;;;;;;5008424;28;20460;-52
2023/06/11 07:53:56;;;;;;;3.90;2.80;;;20.20;99.90;;;;;;5011551;28;20472;-51
2023/06/11 07:56:23;;;;;;;10.70;3.73;;;20.30;99.90;;;;;;5010049;28;20514;-51
2023/06/11 07:58:49;;;;;;;8.07;3.37;;;20.40;99.90;;;;;;5009816;28;20479;-51
2023/06/11 08:01:16;;;;;;;3.23;2.93;;;20.50;99.90;;;;;;5011041;28;20836;-51
2023/06/11 08:03:44;;;;;;;6.93;3.30;;;20.60;99.90;;;;;;5010448;28;20460;-52
2023/06/11 08:06:11;;;;;;;10.27;3.03;;;20.70;99.90;;;;;;5008343;28;20471;-51
2023/06/11 08:08:37;;;;;;;6.43;3.60;;;20.80;99.90;;;;;;5011428;28;20553;-51
2023/06/11 08:11:04;;;;;;;9.87;3.20;;;20.90;99.90;;;;;;5010034;28;20495;-51
2023/06/11 08:13:32;;;;;;;6.23;3.00;;;21.00;99.90;;;;;;5010356;28;20488;-54
2023/06/11 08:15:59;;;;;;;14.30;3.27;;;21.10;99.90;;;;;;5010637;28;20470;-55
2023/06/11 08:18:25;;;;;;;4.80;3.30;;;21.20;99.90;;;;;;5010521;28;20514;-54
2023/06/11 08:20:54;;;;;;;4.80;3.33;;;21.30;99.90;;;;;;5016138;28;21127;-54
2023/06/11 08:23:21;;;;;;;16.10;4.10;;;21.40;99.90;;;;;;5031540;28;20542;-54
2023/06/11 08:25:48;;;;;;;6.53;3.40;;;21.50;99.90;;;;;;5024549;28;20892;-54
2023/06/11 08:28:14;;;;;;;14.63;3.30;;;21.60;99.90;;;;;;5015016;28;20802;-55
2023/06/11 08:30:41;;;;;;;7.33;3.43;;;21.70;99.90;;;;;;5017208;28;20541;-55
2023/06/11 08:33:07;;;;;;;7.50;3.27;;;21.90;99.90;;;;;;5016629;28;20488;-55
2023/06/11 08:35:34;;;;;;;6.80;3.33;;;22.00;99.90;;;;;;5015869;28;20550;-54
2023/06/11 08:38:02;;;;;;;4.97;3.60;;;22.10;99.90;;;;;;5016661;28;20464;-53
2023/06/11 08:40:29;;;;;;;4.60;3.70;;;22.20;99.90;;;;;;5014899;28;20871;-54
2023/06/11 08:42:56;;;;;;;5.13;2.67;;;22.30;99.90;;;;;;5013279;28;20558;-52
2023/06/11 08:45:22;;;;;;;6.97;3.20;;;22.40;99.90;;;;;;5011125;28;20555;-51
2023/06/11 08:47:50;;;;;;;14.40;3.73;;;22.40;99.90;;;;;;5013942;28;20515;-51
2023/06/11 08:50:21;;;;;;;4.00;3.60;;;22.50;99.90;;;;;;5012850;28;20478;-51
2023/06/11 08:52:50;;;;;;;5.93;3.50;;;22.70;99.90;;;;;;5011765;28;20467;-51
2023/06/11 08:55:18;;;;;;;7.57;2.87;;;22.80;99.90;;;;;;5005942;28;20791;-51
2023/06/11 08:57:45;;;;;;;10.43;3.43;;;22.80;99.90;;;;;;5013826;28;20476;-52
2023/06/11 09:00:14;;;;;;;4.27;3.53;;;23.00;99.90;;;;;;5012389;28;20480;-51
2023/06/11 09:02:40;;;;;;;7.70;3.30;;;23.20;99.90;;;;;;5012559;28;20492;-51
2023/06/11 09:05:08;;;;;;;9.20;3.10;;;23.40;99.90;;;;;;5014093;28;20471;-54
2023/06/11 09:07:36;;;;;;;8.73;3.17;;;23.50;99.90;;;;;;5010403;28;21122;-55
2023/06/11 09:10:07;;;;;;;6.93;3.67;;;23.60;99.90;;;;;;5013190;28;20813;-55
2023/06/11 09:12:35;;;;;;;4.77;3.10;;;23.80;99.90;;;;;;5013246;28;20875;-54
2023/06/11 09:15:01;;;;;;;15.83;3.40;;;24.00;99.90;;;;;;5012581;28;20488;-53
2023/06/11 09:17:34;;;;;;;3.57;3.23;;;24.10;99.90;;;;;;5013036;28;20484;-54
2023/06/11 09:20:05;;;;;;;6.73;3.60;;;24.50;99.90;;;;;;5012473;28;20863;-55
2023/06/11 09:22:31;;;;;;;13.10;3.47;;;24.70;99.90;;;;;;5014979;28;20467;-55
2023/06/11 09:25:02;;;;;;;9.50;3.23;;;24.80;99.90;;;;;;5031362;28;20474;-55
2023/06/11 09:27:28;;;;;;;5.60;3.30;;;24.90;99.90;;;;;;5014660;28;20508;-53
2023/06/11 09:29:56;;;;;;;6.60;3.33;;;24.90;99.90;;;;;;5015719;28;20476;-52
2023/06/11 09:32:26;;;;;;;11.10;3.23;;;25.20;99.90;;;;;;5010684;28;20507;-52
2023/06/11 09:34:55;;;;;;;3.37;2.93;;;25.80;99.90;;;;;;5013391;28;20531;-52
2023/06/11 09:37:22;;;;;;;4.43;2.80;;;26.20;99.90;;;;;;5011631;28;20513;-52
2023/06/11 09:39:48;;;;;;;12.73;3.93;;;26.30;99.90;;;;;;5012906;28;20515;-53
2023/06/11 09:42:24;;;;;;;5.10;3.60;;;26.10;99.90;;;;;;5002732;28;20488;-53
2023/06/11 09:44:51;;;;;;;3.77;3.37;;;25.90;99.90;;;;;;5013464;28;20444;-52
2023/06/11 09:47:19;;;;;;;10.80;3.70;;;25.30;99.90;;;;;;5008636;28;20571;-53
2023/06/11 09:49:46;;;;;;;9.67;3.60;;;25.70;99.90;;;;;;5013225;28;20937;-52
2023/06/11 09:52:14;;;;;;;9.63;4.43;;;26.10;99.90;;;;;;5011455;28;20503;-54
2023/06/11 09:54:42;;;;;;;4.60;4.30;;;26.10;99.90;;;;;;5012653;28;20468;-52
2023/06/11 09:57:10;;;;;;;4.50;4.10;;;26.20;99.90;;;;;;5012637;28;20526;-53
2023/06/11 09:59:38;;;;;;;6.70;3.80;;;26.20;99.90;;;;;;5008270;28;20475;-52
2023/06/11 10:02:06;;;;;;;8.73;4.30;;;26.20;99.90;;;;;;5010672;28;20468;-52
2023/06/11 10:04:34;;;;;;;6.23;3.50;;;26.30;99.90;;;;;;5010966;28;20487;-52
2023/06/11 10:07:02;;;;;;;4.60;3.57;;;26.30;99.90;;;;;;5007521;28;20542;-53
2023/06/11 10:09:31;;;;;;;7.97;3.70;;;26.50;99.90;;;;;;5011493;28;20495;-51
2023/06/11 10:11:58;;;;;;;4.53;3.90;;;26.10;99.90;;;;;;5012332;28;20565;-52
2023/06/11 10:14:24;;;;;;;9.03;3.70;;;26.30;99.90;;;;;;5011497;28;20492;-51
2023/06/11 10:16:54;;;;;;;10.60;4.67;;;26.60;99.90;;;;;;5010096;28;20515;-52
2023/06/11 10:19:22;;;;;;;13.43;3.87;;;25.90;99.90;;;;;;5015040;28;20480;-52
2023/06/11 10:21:51;;;;;;;13.53;4.23;;;26.00;99.90;;;;;;5011539;28;20474;-51
2023/06/11 10:24:22;;;;;;;10.80;4.57;;;26.20;99.90;;;;;;5012609;28;20499;-52
2023/06/11 10:27:04;;;;;;;7.60;4.20;;;27.00;99.90;;;;;;5012566;28;20972;-52
2023/06/11 10:29:37;;;;;;;4.80;3.70;;;27.70;99.90;;;;;;5012656;28;20488;-52
2023/06/11 10:32:04;;;;;;;10.13;4.40;;;27.60;99.90;;;;;;5011796;28;20929;-51
2023/06/11 10:34:39;;;;;;;5.60;4.20;;;27.20;99.90;;;;;;5012798;28;20957;-52
2023/06/11 10:37:07;;;;;;;4.40;4.03;;;27.50;99.90;;;;;;5014978;28;20954;-52
2023/06/11 10:39:33;;;;;;;13.53;4.50;;;27.10;99.90;;;;;;5012449;28;20534;-52
2023/06/11 10:42:01;;;;;;;7.87;4.60;;;27.40;99.90;;;;;;5031668;28;20482;-52
2023/06/11 10:44:29;;;;;;;9.30;4.10;;;27.50;99.90;;;;;;5011910;28;20498;-51
2023/06/11 10:47:00;;;;;;;6.60;4.40;;;28.30;99.90;;;;;;5009449;28;20481;-51
2023/06/11 10:49:27;;;;;;;11.60;4.20;;;29.10;99.90;;;;;;5007403;28;20501;-51
2023/06/11 10:51:55;;;;;;;19.03;4.30;;;29.00;99.90;;;;;;5010543;28;20499;-53
2023/06/11 10:54:27;;;;;;;4.00;3.67;;;29.10;97.70;;;;;;5011391;28;20464;-54
2023/06/11 10:56:54;;;;;;;7.10;4.60;;;28.50;99.90;;;;;;5011410;28;20515;-53
2023/06/11 10:59:21;;;;;;;10.73;4.13;;;27.70;99.90;;;;;;5010731;28;22166;-52
2023/06/11 11:01:48;;;;;;;13.93;4.33;;;27.10;99.90;;;;;;5011866;28;20885;-53
2023/06/11 11:04:14;;;;;;;4.07;3.70;;;26.90;99.90;;;;;;5008005;28;20559;-53
2023/06/11 11:06:43;;;;;;;4.23;3.60;;;27.00;99.90;;;;;;5004019;28;20510;-52
2023/06/11 11:09:09;;;;;;;9.10;4.57;;;28.30;99.90;;;;;;5010645;28;20478;-53
2023/06/11 11:11:39;;;;;;;6.70;4.80;;;28.90;99.90;;;;;;5008358;28;20980;-52
2023/06/11 11:14:06;;;;;;;18.27;4.00;;;28.40;83.70;;;;;;5008352;28;20470;-52
2023/06/11 11:16:33;;;;;;;5.47;4.40;;;28.40;99.90;;;;;;5009708;28;20488;-52
2023/06/11 11:18:59;;;;;;;12.57;4.20;;;27.70;74.70;;;;;;5013880;28;20487;-53
2023/06/11 11:21:29;;;;;;;6.40;4.30;;;27.90;87.70;;;;;;5008227;28;20495;-52
2023/06/11 11:23:56;;;;;;;23.60;4.60;;;27.20;99.90;;;;;;5006685;28;20471;-52
2023/06/11 11:26:23;;;;;;;5.23;4.80;;;27.30;98.30;;;;;;5010516;28;20494;-52
2023/06/11 11:28:51;;;;;;;11.13;4.30;;;27.50;99.90;;;;;;5010348;28;20475;-54
2023/06/11 11:31:20;;;;;;;5.90;4.10;;;27.30;99.90;;;;;;5011371;28;20460;-53
2023/06/11 11:33:48;;;;;;;13.00;4.53;;;27.20;99.90;;;;;;5007164;28;20459;-53
2023/06/11 11:36:15;;;;;;;7.23;4.73;;;27.30;99.90;;;;;;5005096;28;20459;-53
2023/06/11 11:38:41;;;;;;;11.40;5.20;;;27.50;99.90;;;;;;5010071;28;20536;-53
2023/06/11 11:41:09;;;;;;;12.13;5.23;;;26.90;99.90;;;;;;5006570;28;20480;-53
2023/06/11 11:43:37;;;;;;;6.50;4.87;;;26.70;99.90;;;;;;5010380;28;20500;-53
2023/06/11 11:46:14;;;;;;;8.27;4.47;;;27.10;99.90;;;;;;5008488;28;20467;-52
2023/06/11 11:48:41;;;;;;;6.43;4.20;;;27.20;99.90;;;;;;5007870;28;20483;-52
2023/06/11 11:51:08;;;;;;;8.90;4.60;;;27.10;99.90;;;;;;5010639;28;20882;-54
2023/06/11 11:53:37;;;;;;;7.97;4.70;;;27.40;99.90;;;;;;5009351;28;20442;-52
2023/06/11 11:56:04;;;;;;;7.00;5.50;;;27.40;99.90;;;;;;5010837;28;20463;-53
2023/06/11 11:58:36;;;;;;;10.50;4.57;;;27.50;99.90;;;;;;5009311;28;20509;-52
2023/06/11 12:01:08;;;;;;;7.33;4.40;;;27.90;99.90;;;;;;5012354;28;21015;-53
2023/06/11 12:03:35;;;;;;;5.47;4.80;;;27.80;99.90;;;;;;5014466;28;21028;-53
2023/06/11 12:06:03;;;;;;;8.80;5.10;;;27.60;99.90;;;;;;5014412;28;20988;-52
2023/06/11 12:08:31;;;;;;;13.30;5.27;;;27.70;99.90;;;;;;5014480;28;20538;-52
2023/06/11 12:10:59;;;;;;;4.93;4.60;;;27.90;99.90;;;;;;5014024;28;20906;-53
2023/06/11 12:13:26;;;;;;;5.73;4.97;;;28.20;99.90;;;;;;5013676;28;20957;-53
2023/06/11 12:15:53;;;;;;;10.13;5.20;;;28.30;99.90;;;;;;5012504;28;20562;-52
2023/06/11 12:18:21;;;;;;;6.77;4.50;;;28.10;99.90;;;;;;5015342;28;20495;-53
2023/06/11 12:20:48;;;;;;;7.40;4.70;;;27.80;99.90;;;;;;5019299;28;20549;-52
2023/06/11 12:23:15;;;;;;;14.03;5.13;;;27.90;99.90;;;;;;5017529;28;20491;-52
2023/06/11 12:25:42;;;;;;;4.57;4.17;;;27.90;99.90;;;;;;5025706;28;20482;-52
2023/06/11 12:28:09;;;;;;;9.27;4.90;;;27.60;99.90;;;;;;5022636;28;20487;-52
2023/06/11 12:30:36;;;;;;;5.37;4.70;;;27.80;99.90;;;;;;5021187;28;20516;-53
2023/06/11 12:33:02;;;;;;;4.67;4.27;;;27.80;88.80;;;;;;5013260;28;20462;-52
2023/06/11 12:35:31;;;;;;;6.07;5.10;;;27.80;85.80;;;;;;5029157;28;20474;-52
2023/06/11 12:37:58;;;;;;;7.53;4.90;;;27.90;99.90;;;;;;5034582;28;20458;-52
2023/06/11 12:40:25;;;;;;;6.17;5.23;;;27.90;99.90;;;;;;5018512;28;20997;-51
2023/06/11 12:42:56;;;;;;;4.60;4.23;;;28.00;99.90;;;;;;5014689;28;20517;-52
2023/06/11 12:45:23;;;;;;;11.37;4.97;;;27.70;99.90;;;;;;5010527;28;20974;-52
2023/06/11 12:47:49;;;;;;;4.77;4.43;;;27.70;99.90;;;;;;5012344;28;21020;-53